Weather at Gørløse Glider Field

Public forecast

Using degrees Celsius for public forecast. Weather courtesy of forecast.io.

Closest aviation weather report (METAR) to Gørløse Glider Field

Closest report is Copenhagen Roskilde Airport, 18.3 nm (33.9 km) S.

2024/05/20 05:20 (retrieved 24 minutes ago)

EKRK 200520Z AUTO 10001KT 9999 NCD 16/12 Q1013

Closest aviation forecast (TAF) to Gørløse Glider Field

Forecast is more than 6 hours old.

Closest forecast is Sandefjord Airport, Torp, 208.1 nm (385.4 km) NNW.

2024/05/19 18:39 (retrieved 11 hours ago)

TAF ENTO 191700Z 1918/2018 21008KT CAVOK BECMG 1921/1923 03010KT